BLACKWATER MD US current weather conditions

sailwx.info

Wind from 226 at 6 knots gusting 14

Air temperature 10.6° C
Dewpoint 10.4° C

Last reported at 2020-Jan-25 12:26 UTC.
Time now 2020-Jan-25 13:43 UTC

Location: N 38°27' W 076°06'.
View on Google Maps.

See reports from other nearby stations

  
Tides and Currents Weather Stations Pressure Air Temp Water Temp Dewpoint Dewpoint Depression Visibility Wind Speed Wind Dir Waves Ship Positions
date/time (UTC)wind fromknots sea level pressurealtimeterstation pressurevisibilityair tempwater tempwave heightnotes
2020-Jan-25 12:26 226 6 gusting 14 10.6
2020-Jan-25 11:26 149 5 gusting 15 12.8
2020-Jan-25 10:26 120 6 gusting 13 12.2
2020-Jan-25 09:26 116 6 gusting 13 11.7
2020-Jan-25 08:26 120 8 gusting 18 11.7
2020-Jan-25 07:26 105 6 gusting 13 10.6
2020-Jan-25 06:26 108 7 gusting 15 10.6
2020-Jan-25 05:26 102 6 gusting 14 10.0
2020-Jan-25 04:26 103 6 gusting 13 9.4
2020-Jan-25 03:26 102 6 gusting 13 8.9
2020-Jan-25 02:26 095 5 gusting 13 8.9
2020-Jan-25 01:26 099 6 gusting 13 8.9
2020-Jan-25 00:26 094 5 gusting 13 9.4
2020-Jan-24 23:26 094 6 gusting 13 10.6
2020-Jan-24 22:26 094 6 gusting 13 11.1
2020-Jan-24 21:26 100 5 gusting 12 12.2
2020-Jan-24 20:26 112 5 gusting 11 13.3
2020-Jan-24 19:26 105 5 gusting 14 14.4
2020-Jan-24 18:26 101 8 gusting 15 13.3
2020-Jan-24 17:26 110 7 gusting 14 12.8
2020-Jan-24 16:26 104 6 gusting 12 11.1
2020-Jan-24 15:26 091 6 gusting 11 8.3
2020-Jan-24 14:26 067 4 gusting 8 5.0
2020-Jan-24 13:26 041 4 gusting 9 3.3
2020-Jan-24 12:26 028 5 gusting 10 2.2
2020-Jan-24 11:26 035 5 gusting 9 1.7
2020-Jan-24 10:26 038 6 gusting 10 1.1
2020-Jan-24 09:26 019 5 gusting 8 1.1
2020-Jan-24 08:26 017 4 gusting 8 1.1
2020-Jan-24 07:26 016 4 gusting 7 1.1
2020-Jan-24 06:26 008 4 gusting 7 1.1
2020-Jan-24 05:26 033 5 gusting 7 1.7
2020-Jan-24 04:26 028 4 gusting 6 1.7
2020-Jan-24 03:26 350 2 gusting 5 1.1
2020-Jan-24 02:26 014 2 gusting 4 1.7
2020-Jan-24 01:26 019 1 gusting 3 1.7
2020-Jan-24 00:26 005 2 gusting 3 2.2
2020-Jan-23 23:26 049 2 gusting 5 3.3
2020-Jan-23 22:26 021 3 gusting 4 4.4
2020-Jan-23 21:26 342 2 gusting 4 5.6
2020-Jan-23 20:26 057 1 gusting 4 6.7
2020-Jan-23 19:26 5.6
2020-Jan-23 18:26 015 5 gusting 7 5.6
2020-Jan-23 17:26 347 5 gusting 9 5.0
2020-Jan-23 16:26 009 6 gusting 9 4.4
2020-Jan-23 15:26 015 4 gusting 7 2.8
2020-Jan-23 14:26 032 4 gusting 6 0.6
2020-Jan-23 13:26 039 0 gusting 1 -1.7